createdAt,value
2022-11-18T00:01:47.754Z,99528.06
2022-11-18T00:04:14.493Z,99526.59
2022-11-18T00:06:41.150Z,99530.53
2022-11-18T00:09:08.591Z,99534.88
2022-11-18T00:11:54.078Z,99544.84
2022-11-18T00:14:24.666Z,99544.19
2022-11-18T00:16:51.224Z,99542.97
2022-11-18T00:19:19.201Z,99547.09
2022-11-18T00:21:46.098Z,99551.81
2022-11-18T00:24:12.719Z,99552.28
2022-11-18T00:26:39.342Z,99546.66
2022-11-18T00:29:06.470Z,99543.88
2022-11-18T00:31:33.119Z,99547.00
2022-11-18T00:34:02.798Z,99544.53
2022-11-18T00:36:29.586Z,99547.00
2022-11-18T00:38:56.277Z,99545.50
2022-11-18T00:41:22.937Z,99544.06
2022-11-18T00:43:49.569Z,99540.34
2022-11-18T00:46:16.248Z,99537.97
2022-11-18T00:48:42.860Z,99539.97
2022-11-18T00:51:18.750Z,99547.25
2022-11-18T00:53:45.648Z,99536.78
2022-11-18T00:56:12.254Z,99545.94
2022-11-18T00:58:38.932Z,99549.84
2022-11-18T01:01:05.865Z,99548.06
2022-11-18T01:03:32.599Z,99551.47
2022-11-18T01:05:59.289Z,99550.75
2022-11-18T01:08:26.127Z,99541.03
2022-11-18T01:10:52.863Z,99544.69
2022-11-18T01:13:20.236Z,99540.84
2022-11-18T01:15:50.344Z,99538.81
2022-11-18T01:18:17.534Z,99541.59
2022-11-18T01:20:44.752Z,99548.22
2022-11-18T01:23:11.736Z,99545.50
2022-11-18T01:25:41.678Z,99556.06
2022-11-18T01:28:08.348Z,99554.75
2022-11-18T01:30:38.632Z,99550.28
2022-11-18T01:33:05.348Z,99560.47
2022-11-18T01:35:36.037Z,99560.47
2022-11-18T01:38:03.185Z,99551.41
2022-11-18T01:40:29.900Z,99552.84
2022-11-18T01:42:56.556Z,99548.38
2022-11-18T01:45:38.711Z,99553.59
2022-11-18T01:48:07.698Z,99553.88
2022-11-18T01:50:35.029Z,99558.53
2022-11-18T01:53:03.644Z,99556.38
2022-11-18T01:55:31.688Z,99547.47
2022-11-18T01:58:00.873Z,99552.28
2022-11-18T02:00:27.477Z,99560.31
2022-11-18T02:02:54.201Z,99554.91
2022-11-18T02:05:20.831Z,99563.88
2022-11-18T02:07:47.458Z,99556.81
2022-11-18T02:10:18.561Z,99564.16
2022-11-18T02:12:48.171Z,99559.75
2022-11-18T02:15:15.204Z,99566.38
2022-11-18T02:17:45.452Z,99562.03
2022-11-18T02:20:13.528Z,99569.13
2022-11-18T02:22:52.439Z,99568.53
2022-11-18T02:25:34.390Z,99572.41
2022-11-18T02:28:01.036Z,99575.34
2022-11-18T02:30:27.708Z,99561.13
2022-11-18T02:32:55.757Z,99571.59
2022-11-18T02:35:24.934Z,99565.06
2022-11-18T02:37:54.874Z,99562.31
2022-11-18T02:40:23.405Z,99563.09
2022-11-18T02:42:52.401Z,99553.28
2022-11-18T02:45:19.229Z,99552.19
2022-11-18T02:47:46.397Z,99554.38
2022-11-18T02:50:14.300Z,99544.00
2022-11-18T02:52:40.984Z,99553.16
2022-11-18T02:55:08.291Z,99550.91
2022-11-18T02:57:35.256Z,99554.97
2022-11-18T03:00:01.994Z,99544.44
2022-11-18T03:02:28.684Z,99544.03
2022-11-18T03:04:56.206Z,99554.38
2022-11-18T03:07:26.001Z,99553.53
2022-11-18T03:09:52.798Z,99556.88
2022-11-18T03:12:24.409Z,99557.50
2022-11-18T03:15:00.476Z,99564.31
2022-11-18T03:17:32.891Z,99559.94
2022-11-18T03:20:03.479Z,99563.94
2022-11-18T03:22:35.304Z,99563.66
2022-11-18T03:25:09.531Z,99565.41
2022-11-18T03:27:42.244Z,99558.28
2022-11-18T03:30:10.192Z,99558.97
2022-11-18T03:32:38.113Z,99567.75
2022-11-18T03:35:09.330Z,99568.00
2022-11-18T03:37:36.012Z,99574.88
2022-11-18T03:40:13.992Z,99576.28
2022-11-18T03:42:40.667Z,99568.31
2022-11-18T03:45:10.395Z,99566.34
2022-11-18T03:47:39.294Z,99573.59
2022-11-18T03:50:07.962Z,99579.19
2022-11-18T03:52:35.021Z,99587.44
2022-11-18T03:55:02.972Z,99583.88
2022-11-18T03:57:35.367Z,99593.97
2022-11-18T04:00:11.731Z,99586.97
2022-11-18T04:02:38.648Z,99596.47
2022-11-18T04:05:06.071Z,99599.59
2022-11-18T04:07:34.081Z,99604.25
2022-11-18T04:10:20.472Z,99607.53
2022-11-18T04:12:49.027Z,99602.22
2022-11-18T04:15:15.750Z,99604.25
2022-11-18T04:17:45.471Z,99602.59
2022-11-18T04:20:16.580Z,99604.84
2022-11-18T04:22:43.290Z,99609.09
2022-11-18T04:25:10.296Z,99614.25
2022-11-18T04:27:36.999Z,99604.47
2022-11-18T04:30:04.465Z,99607.84
2022-11-18T04:32:31.179Z,99613.88
2022-11-18T04:35:50.759Z,99608.63
2022-11-18T04:38:21.774Z,99627.13
2022-11-18T04:43:46.567Z,99621.91
2022-11-18T04:46:16.252Z,99626.69
2022-11-18T04:48:43.097Z,99627.97
2022-11-18T04:51:09.722Z,99622.88
2022-11-18T04:53:36.643Z,99630.78
2022-11-18T04:56:06.847Z,99627.31
2022-11-18T04:58:33.777Z,99624.19
2022-11-18T05:01:00.417Z,99642.94
2022-11-18T05:03:27.103Z,99637.94
2022-11-18T05:05:53.696Z,99632.69
2022-11-18T05:08:20.342Z,99632.38
2022-11-18T05:10:47.010Z,99635.94
2022-11-18T05:13:13.627Z,99650.59
2022-11-18T05:15:40.191Z,99643.59
2022-11-18T05:18:06.816Z,99656.59
2022-11-18T05:20:37.357Z,99655.38
2022-11-18T05:23:06.841Z,99661.53
2022-11-18T05:25:33.517Z,99658.31
2022-11-18T05:28:00.119Z,99665.84
2022-11-18T05:30:26.720Z,99662.94
2022-11-18T05:32:53.358Z,99667.13
2022-11-18T05:35:20.009Z,99661.84
2022-11-18T05:37:46.603Z,99662.75
2022-11-18T05:40:13.218Z,99671.28
2022-11-18T05:42:58.609Z,99679.53
2022-11-18T05:45:25.266Z,99667.31
2022-11-18T05:48:01.027Z,99684.97
2022-11-18T05:50:27.623Z,99694.34
2022-11-18T05:52:54.416Z,99694.25
2022-11-18T05:55:21.132Z,99692.31
2022-11-18T05:57:48.177Z,99686.28
2022-11-18T06:00:15.164Z,99692.75
2022-11-18T06:02:41.903Z,99694.59
2022-11-18T06:05:08.743Z,99701.81
2022-11-18T06:07:37.331Z,99704.88
2022-11-18T06:10:05.991Z,99699.53
2022-11-18T06:12:35.010Z,99705.41
2022-11-18T06:15:06.277Z,99711.09
2022-11-18T06:17:35.552Z,99716.03
2022-11-18T06:20:02.505Z,99716.56
2022-11-18T06:22:29.122Z,99721.13
2022-11-18T06:24:55.766Z,99726.50
2022-11-18T06:27:22.391Z,99733.47
2022-11-18T06:29:49.048Z,99733.06
2022-11-18T06:32:15.731Z,99743.19
2022-11-18T06:34:42.346Z,99746.09
2022-11-18T06:37:15.212Z,99743.38
2022-11-18T06:39:41.834Z,99752.19
2022-11-18T06:42:08.544Z,99751.44
2022-11-18T06:44:35.270Z,99757.91
2022-11-18T06:47:02.729Z,99754.63
2022-11-18T06:49:29.459Z,99760.44
2022-11-18T06:51:56.186Z,99765.59
2022-11-18T06:54:22.894Z,99763.88
2022-11-18T06:56:57.190Z,99767.00
2022-11-18T06:59:25.023Z,99765.22
2022-11-18T07:01:53.607Z,99763.66
2022-11-18T07:04:20.690Z,99772.13
2022-11-18T07:06:48.388Z,99771.25
2022-11-18T07:09:16.261Z,99777.78
2022-11-18T07:11:43.481Z,99781.09
2022-11-18T07:14:10.252Z,99788.81
2022-11-18T07:16:36.955Z,99793.34
2022-11-18T07:19:08.244Z,99796.47
2022-11-18T07:21:35.021Z,99802.13
2022-11-18T07:24:01.783Z,99800.53
2022-11-18T07:26:28.420Z,99797.97
2022-11-18T07:28:55.053Z,99806.47
2022-11-18T07:31:21.735Z,99811.81
2022-11-18T07:33:48.809Z,99808.50
2022-11-18T07:36:16.714Z,99816.03
2022-11-18T07:38:44.712Z,99819.84
2022-11-18T07:41:13.167Z,99824.81
2022-11-18T07:43:40.853Z,99817.16
2022-11-18T07:46:11.936Z,99814.72
2022-11-18T07:48:38.614Z,99828.38
2022-11-18T07:51:06.166Z,99838.41
2022-11-18T07:53:34.838Z,99837.44
2022-11-18T07:56:02.026Z,99833.34
2022-11-18T07:58:28.717Z,99835.19
2022-11-18T08:00:56.065Z,99832.97
2022-11-18T08:03:27.473Z,99833.94
2022-11-18T08:05:59.371Z,99839.88
2022-11-18T08:08:27.166Z,99843.41
2022-11-18T08:10:57.794Z,99840.22
2022-11-18T08:13:26.152Z,99836.78
2022-11-18T08:15:54.389Z,99836.94
2022-11-18T08:18:22.252Z,99829.31
2022-11-18T08:20:49.605Z,99830.34
2022-11-18T08:23:16.684Z,99834.81
2022-11-18T08:25:44.059Z,99841.81
2022-11-18T08:28:11.390Z,99847.03
2022-11-18T08:30:38.201Z,99846.84
2022-11-18T08:33:04.862Z,99853.38
2022-11-18T08:35:32.075Z,99852.69
2022-11-18T08:37:58.998Z,99850.81
2022-11-18T08:40:25.696Z,99850.50
2022-11-18T08:42:52.650Z,99856.31
2022-11-18T08:45:19.367Z,99855.47
2022-11-18T08:47:48.546Z,99869.81
2022-11-18T08:50:15.191Z,99861.47
2022-11-18T08:52:41.817Z,99866.84
2022-11-18T08:55:08.559Z,99864.47
2022-11-18T08:57:35.164Z,99873.72
2022-11-18T09:00:01.957Z,99878.41
2022-11-18T09:02:28.756Z,99881.94
2022-11-18T09:04:55.359Z,99878.41
2022-11-18T09:07:22.094Z,99885.88
2022-11-18T09:09:48.788Z,99883.53
2022-11-18T09:12:17.666Z,99881.28
2022-11-18T09:17:31.484Z,99888.94
2022-11-18T09:19:58.122Z,99898.31
2022-11-18T09:22:24.766Z,99890.78
2022-11-18T09:24:51.584Z,99904.41
2022-11-18T09:27:18.351Z,99904.72
2022-11-18T09:29:45.291Z,99904.03
2022-11-18T09:32:12.087Z,99909.84
2022-11-18T09:34:38.675Z,99903.50
2022-11-18T09:37:06.907Z,99911.28
2022-11-18T09:39:39.763Z,99914.72
2022-11-18T09:42:16.732Z,99910.19
2022-11-18T09:45:02.188Z,99922.28
2022-11-18T09:47:33.036Z,99920.53
2022-11-18T09:50:26.822Z,99923.66
2022-11-18T09:53:02.368Z,99930.47
2022-11-18T09:55:29.006Z,99928.16
2022-11-18T09:57:56.083Z,99934.06
2022-11-18T10:00:24.096Z,99933.41
2022-11-18T10:03:05.094Z,99932.59
2022-11-18T10:05:33.784Z,99935.31
2022-11-18T10:08:05.364Z,99940.22
2022-11-18T10:10:38.306Z,99941.72
2022-11-18T10:13:11.294Z,99946.94
2022-11-18T10:15:44.007Z,99944.19
2022-11-18T10:18:45.009Z,99941.00
2022-11-18T10:21:09.452Z,99950.69
2022-11-18T10:23:39.071Z,99947.19
2022-11-18T10:26:05.651Z,99940.59
2022-11-18T10:28:32.311Z,99940.75
2022-11-18T10:31:06.253Z,99945.84
2022-11-18T10:33:32.955Z,99944.50
2022-11-18T10:36:08.883Z,99955.59
2022-11-18T10:38:35.563Z,99948.59
2022-11-18T10:41:03.004Z,99950.75
2022-11-18T10:43:46.562Z,99957.56
2022-11-18T10:46:19.517Z,99960.84
2022-11-18T10:48:46.143Z,99961.72
2022-11-18T10:51:23.280Z,99969.41
2022-11-18T10:53:49.901Z,99966.31
2022-11-18T10:56:16.503Z,99964.59
2022-11-18T10:58:44.167Z,99961.59
2022-11-18T11:01:16.084Z,99966.44
2022-11-18T11:03:42.883Z,99965.38
2022-11-18T11:06:24.064Z,99965.75
2022-11-18T11:08:51.726Z,99963.50
2022-11-18T11:11:26.172Z,99974.31
2022-11-18T11:13:58.638Z,99977.47
2022-11-18T11:16:26.569Z,99980.69
2022-11-18T11:18:55.690Z,99977.22
2022-11-18T11:21:25.334Z,99988.03
2022-11-18T11:23:51.939Z,99982.88
2022-11-18T11:29:27.426Z,99999.41
2022-11-18T11:32:03.254Z,99987.84
2022-11-18T11:34:35.944Z,99993.78
2022-11-18T11:37:05.573Z,99993.59
2022-11-18T11:39:51.304Z,99992.63
2022-11-18T11:42:20.875Z,99994.69
2022-11-18T11:44:57.100Z,99993.63
2022-11-18T11:47:42.680Z,99998.31
2022-11-18T11:50:20.503Z,99989.44
2022-11-18T11:52:55.075Z,99998.50
2022-11-18T11:55:21.655Z,99999.69
2022-11-18T11:58:13.614Z,100001.03
2022-11-18T12:00:41.275Z,99998.81
2022-11-18T12:03:26.775Z,99996.81
2022-11-18T12:05:53.454Z,100001.63
2022-11-18T12:08:26.378Z,100004.38
2022-11-18T12:11:08.452Z,100003.00
2022-11-18T12:13:40.960Z,100011.66
2022-11-18T12:16:13.589Z,100008.88
2022-11-18T12:18:46.267Z,100012.34
2022-11-18T12:21:35.018Z,100011.06
2022-11-18T12:24:17.280Z,100016.03
2022-11-18T12:26:44.435Z,100012.09
2022-11-18T12:29:20.585Z,100018.47
2022-11-18T12:31:47.764Z,100023.84
2022-11-18T12:34:19.020Z,100021.25
2022-11-18T12:36:45.787Z,100016.81
2022-11-18T12:39:24.780Z,100018.41
2022-11-18T12:42:10.709Z,100026.84
2022-11-18T12:44:39.360Z,100026.22
2022-11-18T12:47:10.038Z,100028.16
2022-11-18T12:49:36.652Z,100026.53
2022-11-18T12:52:04.167Z,100033.94
2022-11-18T12:54:30.768Z,100029.28
2022-11-18T12:57:18.265Z,100025.63
2022-11-18T12:59:44.889Z,100026.25
2022-11-18T13:02:11.801Z,100030.09
2022-11-18T13:04:45.099Z,100023.44
2022-11-18T13:07:31.317Z,100035.25
2022-11-18T13:09:58.100Z,100033.56
2022-11-18T13:12:28.002Z,100029.75
2022-11-18T13:15:13.473Z,100041.00
2022-11-18T13:17:54.871Z,100029.63
2022-11-18T13:20:31.292Z,100036.84
2022-11-18T13:23:17.191Z,100033.72
2022-11-18T13:25:45.856Z,100035.06
2022-11-18T13:28:12.456Z,100042.69
2022-11-18T13:30:43.139Z,100040.38
2022-11-18T13:33:10.180Z,100048.59
2022-11-18T13:35:36.782Z,100037.19
2022-11-18T13:38:03.435Z,100039.28
2022-11-18T13:40:31.675Z,100050.78
2022-11-18T13:42:58.285Z,100053.25
2022-11-18T13:45:26.569Z,100055.19
2022-11-18T13:47:55.412Z,100054.84
2022-11-18T13:50:38.522Z,100054.56
2022-11-18T13:53:23.513Z,100054.81
2022-11-18T13:55:54.884Z,100056.88
2022-11-18T13:58:55.836Z,100068.03
2022-11-18T14:01:23.195Z,100068.81
2022-11-18T14:03:58.805Z,100064.44
2022-11-18T14:06:28.485Z,100068.41
2022-11-18T14:09:13.925Z,100074.06
2022-11-18T14:11:41.969Z,100077.91
2022-11-18T14:14:09.734Z,100081.75
2022-11-18T14:16:37.327Z,100082.13
2022-11-18T14:19:04.052Z,100098.03
2022-11-18T14:21:31.552Z,100087.63
2022-11-18T14:23:59.673Z,100089.25
2022-11-18T14:26:26.988Z,100090.09
2022-11-18T14:28:54.412Z,100093.25
2022-11-18T14:31:25.234Z,100099.00
2022-11-18T14:34:13.743Z,100097.81
2022-11-18T14:36:40.944Z,100104.56
2022-11-18T14:39:27.503Z,100100.53
2022-11-18T14:41:54.671Z,100114.78
2022-11-18T14:44:21.978Z,100123.94
2022-11-18T14:46:49.946Z,100135.16
2022-11-18T14:49:18.510Z,100132.09
2022-11-18T14:51:45.659Z,100120.75
2022-11-18T14:54:20.824Z,100126.16
2022-11-18T14:56:52.440Z,100132.47
2022-11-18T14:59:20.300Z,100138.22
2022-11-18T15:01:47.442Z,100137.53
2022-11-18T15:04:15.848Z,100140.31
2022-11-18T15:06:42.547Z,100144.38
2022-11-18T15:09:09.271Z,100144.69
2022-11-18T15:11:35.914Z,100138.91
2022-11-18T15:14:02.900Z,100152.19
2022-11-18T15:16:30.095Z,100156.78
2022-11-18T15:19:00.420Z,100165.78
2022-11-18T15:21:27.345Z,100158.81
2022-11-18T15:23:54.091Z,100168.81
2022-11-18T15:26:24.796Z,100165.69
2022-11-18T15:28:52.392Z,100171.75
2022-11-18T15:31:19.055Z,100164.19
2022-11-18T15:33:46.138Z,100170.44
2022-11-18T15:36:13.935Z,100173.94
2022-11-18T15:38:41.016Z,100176.69
2022-11-18T15:41:08.069Z,100179.34
2022-11-18T15:43:35.677Z,100178.53
2022-11-18T15:46:02.284Z,100176.97
2022-11-18T15:48:28.969Z,100194.47
2022-11-18T15:50:58.402Z,100182.78
2022-11-18T15:53:25.010Z,100195.31
2022-11-18T15:55:51.647Z,100199.50
2022-11-18T15:58:18.304Z,100206.38
2022-11-18T16:00:45.415Z,100201.84
2022-11-18T16:03:12.080Z,100194.06
2022-11-18T16:05:38.704Z,100195.91
2022-11-18T16:08:05.455Z,100205.47
2022-11-18T16:10:50.871Z,100207.66
2022-11-18T16:13:23.461Z,100209.88
2022-11-18T16:15:50.083Z,100213.34
2022-11-18T16:18:18.063Z,100212.78
2022-11-18T16:20:44.755Z,100208.34
2022-11-18T16:23:11.400Z,100216.09
2022-11-18T16:25:42.866Z,100211.78
2022-11-18T16:28:09.458Z,100216.19
2022-11-18T16:30:54.872Z,100211.94
2022-11-18T16:33:21.586Z,100224.38
2022-11-18T16:35:48.352Z,100220.97
2022-11-18T16:38:14.960Z,100225.38
2022-11-18T16:40:43.393Z,100237.97
2022-11-18T16:43:12.840Z,100242.28
2022-11-18T16:45:39.614Z,100246.03
2022-11-18T16:48:06.315Z,100239.47
2022-11-18T16:50:33.077Z,100242.78
2022-11-18T16:52:59.736Z,100247.22
2022-11-18T16:55:26.357Z,100252.19
2022-11-18T16:57:52.969Z,100248.91
2022-11-18T17:00:19.764Z,100251.44
2022-11-18T17:02:46.414Z,100254.13
2022-11-18T17:05:13.807Z,100249.81
2022-11-18T17:07:40.450Z,100259.28
2022-11-18T17:10:19.666Z,100253.28
2022-11-18T17:12:47.016Z,100258.69
2022-11-18T17:15:14.274Z,100264.81
2022-11-18T17:17:42.133Z,100263.94
2022-11-18T17:20:08.928Z,100268.25
2022-11-18T17:22:35.576Z,100265.81
2022-11-18T17:25:05.359Z,100274.75
2022-11-18T17:27:32.337Z,100283.97
2022-11-18T17:29:59.050Z,100279.41
2022-11-18T17:32:25.666Z,100284.47
2022-11-18T17:34:52.387Z,100282.59
2022-11-18T17:37:19.012Z,100275.47
2022-11-18T17:39:45.598Z,100285.19
2022-11-18T17:42:17.587Z,100284.28
2022-11-18T17:44:47.380Z,100283.63
2022-11-18T17:47:14.044Z,100287.13
2022-11-18T17:49:42.337Z,100288.97
2022-11-18T17:52:09.159Z,100283.09
2022-11-18T17:54:35.824Z,100295.31
2022-11-18T17:57:02.433Z,100290.28
2022-11-18T17:59:29.064Z,100290.31
2022-11-18T18:01:59.261Z,100299.06
2022-11-18T18:04:26.600Z,100292.94
2022-11-18T18:06:53.609Z,100299.03
2022-11-18T18:09:28.569Z,100288.69
2022-11-18T18:11:58.780Z,100285.91
2022-11-18T18:14:25.396Z,100282.50
2022-11-18T18:16:52.185Z,100296.56
2022-11-18T18:19:20.140Z,100303.59
2022-11-18T18:21:47.145Z,100298.38
2022-11-18T18:24:15.465Z,100310.59
2022-11-18T18:26:42.293Z,100314.06
2022-11-18T18:29:09.034Z,100318.47
2022-11-18T18:31:36.507Z,100319.47
2022-11-18T18:34:03.603Z,100324.00
2022-11-18T18:36:30.424Z,100321.50
2022-11-18T18:38:58.379Z,100328.44
2022-11-18T18:41:25.381Z,100323.31
2022-11-18T18:43:52.286Z,100317.19
2022-11-18T18:46:29.143Z,100322.50
2022-11-18T18:48:57.279Z,100327.00
2022-11-18T18:51:24.566Z,100337.34
2022-11-18T18:53:51.640Z,100332.16
2022-11-18T18:56:18.266Z,100335.66
2022-11-18T18:58:50.359Z,100335.72
2022-11-18T19:01:17.591Z,100328.03
2022-11-18T19:03:46.698Z,100335.84
2022-11-18T19:06:53.222Z,100338.44
2022-11-18T19:09:13.530Z,100334.19
2022-11-18T19:12:05.274Z,100333.41
2022-11-18T19:14:42.255Z,100348.25
2022-11-18T19:17:12.866Z,100344.03
2022-11-18T19:20:00.673Z,100352.91
2022-11-18T19:22:31.503Z,100349.41
2022-11-18T19:28:09.600Z,100365.00
2022-11-18T19:31:21.062Z,100373.63
2022-11-18T19:33:47.764Z,100363.25
2022-11-18T19:36:14.800Z,100370.28
2022-11-18T19:38:41.509Z,100371.22
2022-11-18T19:41:09.705Z,100376.34
2022-11-18T19:43:36.477Z,100370.31
2022-11-18T19:46:03.266Z,100371.31
2022-11-18T19:48:29.947Z,100375.75
2022-11-18T19:51:06.923Z,100380.16
2022-11-18T19:53:35.158Z,100379.34
2022-11-18T19:56:03.265Z,100379.50
2022-11-18T19:58:33.412Z,100377.69
2022-11-18T20:01:08.373Z,100388.13
2022-11-18T20:03:35.274Z,100385.47
2022-11-18T20:06:02.381Z,100392.41
2022-11-18T20:08:30.665Z,100394.13
2022-11-18T20:11:00.775Z,100389.81
2022-11-18T20:13:30.406Z,100401.09
2022-11-18T20:16:04.461Z,100399.41
2022-11-18T20:18:31.268Z,100396.75
2022-11-18T20:21:04.417Z,100395.88
2022-11-18T20:23:31.089Z,100396.69
2022-11-18T20:25:58.033Z,100406.25
2022-11-18T20:28:24.714Z,100396.81
2022-11-18T20:30:55.432Z,100404.56
2022-11-18T20:33:22.068Z,100405.44
2022-11-18T20:35:48.784Z,100403.81
2022-11-18T20:38:15.449Z,100409.06
2022-11-18T20:40:42.130Z,100411.72
2022-11-18T20:43:13.269Z,100423.28
2022-11-18T20:45:43.771Z,100429.53
2022-11-18T20:48:11.179Z,100434.09
2022-11-18T20:50:38.385Z,100444.38
2022-11-18T20:53:05.613Z,100440.81
2022-11-18T20:55:36.068Z,100443.47
2022-11-18T20:58:02.755Z,100439.91
2022-11-18T21:00:29.390Z,100448.50
2022-11-18T21:02:56.162Z,100447.59
2022-11-18T21:05:22.828Z,100446.69
2022-11-18T21:07:50.614Z,100446.66
2022-11-18T21:10:17.805Z,100448.47
2022-11-18T21:13:06.518Z,100458.94
2022-11-18T21:15:33.298Z,100451.09
2022-11-18T21:17:59.948Z,100449.31
2022-11-18T21:20:45.416Z,100445.81
2022-11-18T21:23:12.157Z,100452.72
2022-11-18T21:25:38.966Z,100454.50
2022-11-18T21:28:05.711Z,100458.03
2022-11-18T21:30:32.497Z,100456.28
2022-11-18T21:32:59.163Z,100459.75
2022-11-18T21:35:25.883Z,100464.03
2022-11-18T21:37:52.654Z,100463.97
2022-11-18T21:40:19.402Z,100459.63
2022-11-18T21:42:46.031Z,100462.22
2022-11-18T21:45:15.960Z,100457.00
2022-11-18T21:47:53.406Z,100459.56
2022-11-18T21:50:22.375Z,100456.09
2022-11-18T21:52:49.105Z,100460.38
2022-11-18T21:55:16.792Z,100461.31
2022-11-18T21:57:43.450Z,100464.00
2022-11-18T22:00:13.414Z,100465.66
2022-11-18T22:02:40.061Z,100475.25
2022-11-18T22:05:07.476Z,100470.00
2022-11-18T22:07:34.395Z,100476.97
2022-11-18T22:10:01.124Z,100470.13
2022-11-18T22:12:27.899Z,100474.44
2022-11-18T22:14:54.572Z,100471.00
2022-11-18T22:17:21.199Z,100473.56
2022-11-18T22:19:47.815Z,100473.56
2022-11-18T22:22:14.441Z,100474.50
2022-11-18T22:24:41.053Z,100470.19
2022-11-18T22:27:11.356Z,100475.41
2022-11-18T22:29:38.338Z,100474.53
2022-11-18T22:32:05.116Z,100477.16
2022-11-18T22:34:31.733Z,100481.59
2022-11-18T22:36:58.328Z,100477.31
2022-11-18T22:39:24.912Z,100483.47
2022-11-18T22:42:10.304Z,100483.47
2022-11-18T22:44:36.987Z,100481.78
2022-11-18T22:47:03.604Z,100481.78
2022-11-18T22:49:30.523Z,100487.84
2022-11-18T22:51:57.195Z,100492.25
2022-11-18T22:54:38.256Z,100487.97
2022-11-18T22:57:05.716Z,100487.94
2022-11-18T22:59:32.315Z,100486.19
2022-11-18T23:01:59.355Z,100491.34
2022-11-18T23:04:25.967Z,100491.34
2022-11-18T23:06:52.640Z,100493.88
2022-11-18T23:09:19.521Z,100494.75
2022-11-18T23:12:05.139Z,100493.06
2022-11-18T23:14:31.817Z,100498.25
2022-11-18T23:16:58.500Z,100492.22
2022-11-18T23:19:25.105Z,100489.63
2022-11-18T23:21:51.690Z,100481.84
2022-11-18T23:24:18.820Z,100493.16
2022-11-18T23:26:45.765Z,100492.31
2022-11-18T23:29:15.620Z,100488.81
2022-11-18T23:31:43.090Z,100490.56
2022-11-18T23:34:11.802Z,100495.72
2022-11-18T23:36:38.461Z,100496.59
2022-11-18T23:39:05.175Z,100495.75
2022-11-18T23:41:32.021Z,100501.88
2022-11-18T23:43:58.769Z,100491.50
2022-11-18T23:46:27.932Z,100487.19
2022-11-18T23:48:56.337Z,100492.38
2022-11-18T23:51:23.295Z,100495.88
2022-11-18T23:53:54.149Z,100494.97
2022-11-18T23:56:21.480Z,100493.28
2022-11-18T23:58:49.017Z,100488.97
